MZBZ/BZE METAR and TAF weather

Enter ICAO airport designator
Station Type Date Time Source
MZBZ METAR 2019/04/24 16:00 UTC NOAA

MZBZ 241600Z 12007KT 9999 BKN027 29/24 A2994 Q1013 NOSIG


Station Type Date Time Source
MZBZ Decoded METAR 2019/04/24 16:00 UTC NOAA

Belize / Phillip Goldston Intl. Airport, Belize (MZBZ) 17-32N 088-18W 5M
Apr 24, 2019 - 12:00 PM EDT / 2019.04.24 1600 UTC
Wind: from the ESE (120 degrees) at 8 MPH (7 KT):0
Visibility: greater than 7 mile(s):0
Sky conditions: mostly cloudy
Temperature: 84 F (29 C)
Dew Point: 75 F (24 C)
Relative Humidity: 74%
Pressure (altimeter): 29.94 in. Hg (1013 hPa)
ob: MZBZ 241600Z 12007KT 9999 BKN027 29/24 A2994 Q1013 NOSIG
cycle: 16

Station Type Date Time Source
MZBZ TAF 2019/04/24 18:07 UTC NOAA

TAF MZBZ 241500Z 2418/2518 12010KT 9999 SCT024

Example: see airport list